createdAt,value
2018-02-14T00:01:05.017Z,-1.60
2018-02-14T00:03:33.357Z,-1.60
2018-02-14T00:06:01.441Z,-1.60
2018-02-14T00:08:29.233Z,-1.60
2018-02-14T00:10:56.780Z,-1.70
2018-02-14T00:13:24.330Z,-1.80
2018-02-14T00:15:51.925Z,-1.80
2018-02-14T00:18:21.066Z,-1.90
2018-02-14T00:20:48.609Z,-1.90
2018-02-14T00:23:17.694Z,-1.90
2018-02-14T00:25:46.009Z,-2.00
2018-02-14T00:28:13.553Z,-2.00
2018-02-14T00:30:41.665Z,-2.00
2018-02-14T00:33:09.217Z,-1.90
2018-02-14T00:35:36.765Z,-2.00
2018-02-14T00:38:04.343Z,-2.00
2018-02-14T00:40:31.884Z,-2.00
2018-02-14T00:42:59.684Z,-2.00
2018-02-14T00:45:27.663Z,-1.80
2018-02-14T00:47:55.233Z,-1.90
2018-02-14T00:50:22.777Z,-1.90
2018-02-14T00:52:50.621Z,-1.90
2018-02-14T00:55:18.272Z,-1.90
2018-02-14T00:57:45.818Z,-1.80
2018-02-14T01:00:13.430Z,-1.80
2018-02-14T01:02:40.975Z,-1.80
2018-02-14T01:05:10.028Z,-1.80
2018-02-14T01:07:38.438Z,-1.80
2018-02-14T01:10:05.989Z,-1.80
2018-02-14T01:12:33.534Z,-1.80
2018-02-14T01:15:01.428Z,-1.80
2018-02-14T01:17:28.982Z,-1.80
2018-02-14T01:20:02.738Z,-1.90
2018-02-14T01:22:30.286Z,-2.00
2018-02-14T01:24:57.833Z,-2.10
2018-02-14T01:27:26.907Z,-2.30
2018-02-14T01:29:54.457Z,-2.30
2018-02-14T01:32:22.035Z,-2.40
2018-02-14T01:34:50.093Z,-2.50
2018-02-14T01:37:17.638Z,-2.50
2018-02-14T01:39:45.597Z,-2.60
2018-02-14T01:42:13.198Z,-2.70
2018-02-14T01:44:40.741Z,-2.80
2018-02-14T01:47:08.289Z,-2.80
2018-02-14T01:49:36.685Z,-2.90
2018-02-14T01:52:04.240Z,-2.90
2018-02-14T01:54:31.785Z,-2.90
2018-02-14T01:56:59.626Z,-3.00
2018-02-14T01:59:27.175Z,-3.00
2018-02-14T02:01:54.721Z,-3.00
2018-02-14T02:04:22.312Z,-3.10
2018-02-14T02:06:49.857Z,-3.10
2018-02-14T02:09:17.408Z,-3.10
2018-02-14T02:11:45.884Z,-3.10
2018-02-14T02:14:14.197Z,-3.10
2018-02-14T02:16:41.749Z,-3.20
2018-02-14T02:19:09.369Z,-3.20
2018-02-14T02:21:36.913Z,-3.20
2018-02-14T02:24:04.764Z,-3.20
2018-02-14T02:26:32.595Z,-3.20
2018-02-14T02:29:00.141Z,-3.20
2018-02-14T02:31:27.746Z,-3.20
2018-02-14T02:33:56.097Z,-3.30
2018-02-14T02:36:24.078Z,-3.30
2018-02-14T02:38:52.167Z,-3.30
2018-02-14T02:41:19.710Z,-3.30
2018-02-14T02:43:47.256Z,-3.30
2018-02-14T02:46:15.146Z,-3.20
2018-02-14T02:48:42.717Z,-3.20
2018-02-14T02:51:10.446Z,-3.20
2018-02-14T02:53:38.142Z,-3.20
2018-02-14T02:56:05.695Z,-3.20
2018-02-14T02:58:33.247Z,-3.20
2018-02-14T03:01:01.018Z,-3.30
2018-02-14T03:03:28.718Z,-3.20
2018-02-14T03:05:56.268Z,-3.30
2018-02-14T03:08:24.930Z,-3.30
2018-02-14T03:10:52.473Z,-3.30
2018-02-14T03:13:20.023Z,-3.30
2018-02-14T03:15:47.884Z,-3.30
2018-02-14T03:18:15.429Z,-3.30
2018-02-14T03:20:42.973Z,-3.30
2018-02-14T03:23:10.548Z,-3.30
2018-02-14T03:25:38.094Z,-3.20
2018-02-14T03:28:05.658Z,-3.30
2018-02-14T03:30:33.479Z,-3.20
2018-02-14T03:33:01.022Z,-3.10
2018-02-14T03:35:28.567Z,-3.00
2018-02-14T03:37:56.253Z,-2.90
2018-02-14T03:40:23.861Z,-2.90
2018-02-14T03:42:51.416Z,-2.90
2018-02-14T03:45:19.823Z,-3.00
2018-02-14T03:47:47.370Z,-3.00
2018-02-14T03:50:14.913Z,-2.90
2018-02-14T03:52:42.739Z,-2.90
2018-02-14T03:55:10.461Z,-3.00
2018-02-14T03:57:38.005Z,-3.10
2018-02-14T04:00:06.376Z,-3.10
2018-02-14T04:02:33.925Z,-3.10
2018-02-14T04:05:02.243Z,-3.10
2018-02-14T04:07:30.660Z,-3.10
2018-02-14T04:09:58.617Z,-3.20
2018-02-14T04:12:26.176Z,-3.20
2018-02-14T04:14:54.259Z,-3.20
2018-02-14T04:17:21.810Z,-3.20
2018-02-14T04:19:49.550Z,-3.20
2018-02-14T04:22:17.198Z,-3.10
2018-02-14T04:24:44.750Z,-3.00
2018-02-14T04:27:12.305Z,-2.80
2018-02-14T04:29:39.906Z,-2.80
2018-02-14T04:32:09.197Z,-2.60
2018-02-14T04:34:36.746Z,-2.50
2018-02-14T04:37:04.649Z,-2.30
2018-02-14T04:39:32.193Z,-2.20
2018-02-14T04:41:59.742Z,-2.10
2018-02-14T04:44:27.558Z,-2.00
2018-02-14T04:46:55.258Z,-1.90
2018-02-14T04:49:22.815Z,-1.90
2018-02-14T04:51:50.632Z,-1.90
2018-02-14T04:54:18.179Z,-1.80
2018-02-14T04:56:45.721Z,-1.70
2018-02-14T04:59:13.414Z,-1.60
2018-02-14T05:01:40.965Z,-1.60
2018-02-14T05:04:09.132Z,-1.50
2018-02-14T05:06:36.707Z,-1.50
2018-02-14T05:09:05.018Z,-1.50
2018-02-14T05:11:33.560Z,-1.50
2018-02-14T05:14:01.116Z,-1.40
2018-02-14T05:16:30.168Z,-1.30
2018-02-14T05:18:59.194Z,-1.30
2018-02-14T05:21:26.744Z,-1.40
2018-02-14T05:23:54.295Z,-1.30
2018-02-14T05:26:21.983Z,-1.20
2018-02-14T05:28:49.824Z,-1.20
2018-02-14T05:31:18.352Z,-1.20
2018-02-14T05:33:46.881Z,-1.10
2018-02-14T05:36:14.425Z,-1.10
2018-02-14T05:38:41.980Z,-1.10
2018-02-14T05:41:10.725Z,-1.10
2018-02-14T05:43:38.270Z,-1.10
2018-02-14T05:46:05.823Z,-1.10
2018-02-14T05:48:33.805Z,-1.20
2018-02-14T05:51:01.352Z,-1.20
2018-02-14T05:53:29.095Z,-1.20
2018-02-14T05:55:56.797Z,-1.20
2018-02-14T05:58:24.345Z,-1.20
2018-02-14T06:00:51.898Z,-1.20
2018-02-14T06:03:21.610Z,-1.20
2018-02-14T06:05:49.442Z,-1.30
2018-02-14T06:08:16.986Z,-1.20
2018-02-14T06:10:47.269Z,-1.20
2018-02-14T06:13:14.818Z,-1.20
2018-02-14T06:15:42.362Z,-1.20
2018-02-14T06:18:10.423Z,-1.10
2018-02-14T06:20:37.970Z,-1.10
2018-02-14T06:23:05.517Z,-1.00
2018-02-14T06:25:33.432Z,-1.00
2018-02-14T06:28:00.969Z,-1.00
2018-02-14T06:30:28.517Z,-1.00
2018-02-14T06:32:56.261Z,-1.00
2018-02-14T06:35:27.357Z,-0.90
2018-02-14T06:37:54.909Z,-0.90
2018-02-14T06:40:22.685Z,-0.80
2018-02-14T06:42:51.681Z,-0.80
2018-02-14T06:45:19.346Z,-0.80
2018-02-14T06:47:48.578Z,-0.80
2018-02-14T06:50:17.729Z,-0.70
2018-02-14T06:52:45.686Z,-0.80
2018-02-14T06:55:13.988Z,-0.70
2018-02-14T06:57:41.541Z,-0.70
2018-02-14T07:00:09.083Z,-0.70
2018-02-14T07:02:36.965Z,-0.70
2018-02-14T07:05:04.509Z,-0.70
2018-02-14T07:07:32.052Z,-0.60
2018-02-14T07:09:59.650Z,-0.60
2018-02-14T07:12:27.193Z,-0.60
2018-02-14T07:14:54.742Z,-0.50
2018-02-14T07:17:22.531Z,-0.50
2018-02-14T07:19:50.074Z,-0.50
2018-02-14T07:22:17.624Z,-0.50
2018-02-14T07:24:45.514Z,-0.50
2018-02-14T07:27:13.054Z,-0.40
2018-02-14T07:29:40.599Z,-0.40
2018-02-14T07:32:08.294Z,-0.40
2018-02-14T07:34:42.330Z,-0.40
2018-02-14T07:37:14.525Z,-0.30
2018-02-14T07:39:42.870Z,-0.30
2018-02-14T07:42:10.415Z,-0.20
2018-02-14T07:44:40.936Z,-0.20
2018-02-14T07:47:08.562Z,-0.20
2018-02-14T07:49:36.106Z,-0.10
2018-02-14T07:52:04.473Z,-0.10
2018-02-14T07:54:39.477Z,-0.10
2018-02-14T07:57:07.018Z,0.00
2018-02-14T07:59:34.796Z,0.00
2018-02-14T08:02:02.559Z,0.00
2018-02-14T08:04:30.106Z,0.00
2018-02-14T08:06:57.645Z,0.00
2018-02-14T08:09:25.350Z,0.10
2018-02-14T08:11:52.900Z,0.10
2018-02-14T08:14:22.516Z,0.20
2018-02-14T08:16:51.482Z,0.20
2018-02-14T08:19:19.021Z,0.20
2018-02-14T08:21:46.561Z,0.30
2018-02-14T08:24:18.886Z,0.40
2018-02-14T08:26:46.421Z,0.30
2018-02-14T08:29:13.959Z,0.40
2018-02-14T08:31:43.714Z,0.50
2018-02-14T08:34:11.250Z,0.50
2018-02-14T08:36:40.773Z,0.50
2018-02-14T08:39:11.626Z,0.60
2018-02-14T08:41:39.176Z,0.60
2018-02-14T08:44:06.717Z,0.70
2018-02-14T08:46:34.577Z,0.70
2018-02-14T08:49:02.113Z,0.80
2018-02-14T08:51:29.657Z,0.80
2018-02-14T08:54:01.175Z,0.90
2018-02-14T08:56:28.713Z,0.90
2018-02-14T08:59:00.241Z,1.00
2018-02-14T09:01:29.582Z,1.10
2018-02-14T09:03:57.220Z,1.00
2018-02-14T09:06:24.766Z,1.00
2018-02-14T09:08:53.593Z,0.90
2018-02-14T09:11:21.134Z,1.00
2018-02-14T09:13:48.682Z,1.00
2018-02-14T09:16:16.577Z,1.20
2018-02-14T09:18:44.116Z,1.10
2018-02-14T09:21:11.658Z,1.10
2018-02-14T09:23:39.357Z,1.10
2018-02-14T09:26:06.900Z,1.20
2018-02-14T09:28:34.442Z,1.30
2018-02-14T09:31:02.141Z,1.30
2018-02-14T09:33:29.778Z,1.40
2018-02-14T09:35:58.018Z,1.40
2018-02-14T09:38:25.558Z,1.60
2018-02-14T09:40:53.867Z,1.70
2018-02-14T09:43:27.214Z,1.70
2018-02-14T09:45:54.767Z,1.80
2018-02-14T09:48:22.309Z,2.00
2018-02-14T09:50:50.196Z,2.20
2018-02-14T09:53:17.732Z,2.10
2018-02-14T09:55:45.473Z,2.10
2018-02-14T09:58:13.056Z,2.50
2018-02-14T10:00:40.609Z,2.60
2018-02-14T10:03:08.158Z,2.60
2018-02-14T10:05:35.962Z,2.70
2018-02-14T10:08:03.580Z,2.60
2018-02-14T10:10:31.123Z,2.50
2018-02-14T10:13:00.587Z,2.20
2018-02-14T10:15:28.128Z,2.20
2018-02-14T10:17:59.310Z,2.20
2018-02-14T10:20:31.761Z,2.10
2018-02-14T10:22:59.309Z,2.10
2018-02-14T10:25:27.455Z,2.40
2018-02-14T10:27:55.030Z,2.30
2018-02-14T10:30:22.573Z,2.00
2018-02-14T10:32:50.110Z,2.10
2018-02-14T10:35:18.442Z,2.20
2018-02-14T10:37:45.989Z,2.20
2018-02-14T10:40:13.539Z,2.40
2018-02-14T10:42:41.329Z,2.40
2018-02-14T10:45:09.160Z,2.70
2018-02-14T10:47:36.693Z,2.80
2018-02-14T10:50:05.138Z,3.20
2018-02-14T10:52:34.241Z,3.10
2018-02-14T10:55:01.781Z,2.90
2018-02-14T10:57:29.555Z,2.90
2018-02-14T10:59:57.093Z,3.00
2018-02-14T11:02:24.638Z,3.00
2018-02-14T11:04:57.960Z,2.90
2018-02-14T11:07:25.506Z,3.30
2018-02-14T11:09:53.045Z,3.50
2018-02-14T11:12:21.060Z,3.50
2018-02-14T11:14:48.597Z,3.50
2018-02-14T11:17:16.137Z,3.50
2018-02-14T11:19:43.839Z,3.60
2018-02-14T11:22:11.474Z,3.60
2018-02-14T11:24:42.641Z,3.50
2018-02-14T11:27:11.905Z,3.30
2018-02-14T11:29:39.445Z,3.40
2018-02-14T11:32:08.089Z,3.60
2018-02-14T11:34:39.873Z,3.60
2018-02-14T11:37:08.182Z,3.50
2018-02-14T11:39:37.012Z,3.50
2018-02-14T11:42:05.685Z,3.30
2018-02-14T11:44:33.236Z,3.30
2018-02-14T11:47:01.022Z,3.40
2018-02-14T11:49:28.562Z,3.40
2018-02-14T11:51:56.102Z,3.30
2018-02-14T11:54:24.213Z,3.00
2018-02-14T11:56:51.749Z,3.00
2018-02-14T11:59:19.494Z,3.20
2018-02-14T12:01:47.093Z,3.10
2018-02-14T12:04:14.642Z,3.10
2018-02-14T12:06:43.801Z,3.30
2018-02-14T12:09:13.821Z,2.90
2018-02-14T12:11:41.640Z,2.90
2018-02-14T12:14:09.326Z,3.00
2018-02-14T12:16:36.865Z,2.90
2018-02-14T12:19:04.466Z,2.80
2018-02-14T12:21:32.009Z,2.70
2018-02-14T12:24:03.118Z,2.50
2018-02-14T12:26:32.620Z,2.50
2018-02-14T12:29:00.157Z,2.40
2018-02-14T12:31:27.693Z,2.50
2018-02-14T14:59:52.129Z,0.30
2018-02-14T15:02:20.067Z,0.30
2018-02-14T15:04:47.608Z,0.20
2018-02-14T15:07:15.178Z,0.10
2018-02-14T15:09:43.045Z,0.00
2018-02-14T15:12:10.589Z,0.00
2018-02-14T15:14:38.134Z,-0.10
2018-02-14T15:17:05.825Z,-0.10
2018-02-14T15:19:37.789Z,-0.20
2018-02-14T15:22:06.520Z,-0.30
2018-02-14T15:24:34.154Z,-0.40
2018-02-14T15:27:01.697Z,-0.30
2018-02-14T15:29:31.765Z,-0.50
2018-02-14T15:32:03.416Z,-0.50
2018-02-14T15:34:31.133Z,-0.50
2018-02-14T15:36:58.682Z,-0.60
2018-02-14T15:39:28.301Z,-0.70
2018-02-14T15:41:56.164Z,-0.80
2018-02-14T15:44:23.709Z,-0.80
2018-02-14T15:46:51.255Z,-0.90
2018-02-14T15:49:22.694Z,-0.90
2018-02-14T15:51:50.297Z,-1.00
2018-02-14T15:54:17.847Z,-1.10
2018-02-14T15:56:45.389Z,-1.20
2018-02-14T15:59:16.358Z,-1.20
2018-02-14T16:01:49.914Z,-1.30
2018-02-14T16:04:20.676Z,-1.30
2018-02-14T16:06:48.227Z,-1.30
2018-02-14T16:09:15.827Z,-1.30
2018-02-14T16:14:16.313Z,-1.40
2018-02-14T16:16:43.857Z,-1.40
2018-02-14T16:19:12.833Z,-1.40
2018-02-14T16:21:41.164Z,-1.50
2018-02-14T16:24:08.713Z,-1.50
2018-02-14T16:26:36.457Z,-1.50
2018-02-14T16:29:11.281Z,-1.50
2018-02-14T16:31:38.835Z,-1.50
2018-02-14T16:34:06.409Z,-1.50
2018-02-14T16:36:41.225Z,-1.50
2018-02-14T16:39:11.683Z,-1.60
2018-02-14T16:41:39.229Z,-1.60
2018-02-14T16:44:08.258Z,-1.50
2018-02-14T16:46:35.803Z,-1.60
2018-02-14T16:49:03.356Z,-1.60
2018-02-14T16:51:34.221Z,-1.60
2018-02-14T16:54:03.629Z,-1.70
2018-02-14T16:56:31.181Z,-1.70
2018-02-14T16:59:00.727Z,-1.70
2018-02-14T17:01:31.491Z,-1.70
2018-02-14T17:03:59.092Z,-1.70
2018-02-14T17:06:28.163Z,-1.60
2018-02-14T17:08:55.745Z,-1.60
2018-02-14T17:11:27.249Z,-1.60
2018-02-14T17:14:00.954Z,-1.70
2018-02-14T17:16:32.864Z,-1.70
2018-02-14T17:19:00.429Z,-1.70
2018-02-14T17:21:27.981Z,-1.70
2018-02-14T17:24:01.208Z,-1.70
2018-02-14T17:26:28.761Z,-1.70
2018-02-14T17:28:56.314Z,-1.70
2018-02-14T17:31:27.778Z,-1.80
2018-02-14T17:33:55.325Z,-1.90
2018-02-14T17:36:24.370Z,-1.70
2018-02-14T17:38:51.912Z,-1.70
2018-02-14T17:41:19.457Z,-1.70
2018-02-14T17:43:47.180Z,-1.70
2018-02-14T17:46:15.516Z,-1.80
2018-02-14T17:48:49.913Z,-1.80
2018-02-14T17:51:20.757Z,-1.70
2018-02-14T17:53:48.305Z,-1.80
2018-02-14T17:56:17.157Z,-1.80
2018-02-14T17:58:45.397Z,-1.80
2018-02-14T18:01:15.321Z,-1.80
2018-02-14T18:03:42.901Z,-1.90
2018-02-14T18:06:10.456Z,-1.80
2018-02-14T18:08:43.656Z,-1.90
2018-02-14T18:11:11.725Z,-1.80
2018-02-14T18:13:39.274Z,-1.80
2018-02-14T18:16:12.985Z,-1.80
2018-02-14T18:18:44.724Z,-1.80
2018-02-14T18:21:12.376Z,-1.80
2018-02-14T18:23:40.273Z,-1.80
2018-02-14T18:26:07.829Z,-1.80
2018-02-14T18:28:35.380Z,-1.80
2018-02-14T18:31:03.262Z,-1.80
2018-02-14T18:33:30.812Z,-1.80
2018-02-14T18:35:58.357Z,-1.80
2018-02-14T18:38:26.113Z,-1.80
2018-02-14T18:41:02.241Z,-1.70
2018-02-14T18:43:29.932Z,-1.80
2018-02-14T18:45:57.605Z,-1.90
2018-02-14T18:48:25.151Z,-1.90
2018-02-14T18:50:55.849Z,-2.00
2018-02-14T18:53:28.105Z,-2.20
2018-02-14T18:55:55.657Z,-2.20
2018-02-14T18:58:28.343Z,-2.20
2018-02-14T19:00:57.398Z,-2.30
2018-02-14T19:03:24.955Z,-2.30
2018-02-14T19:05:56.851Z,-2.40
2018-02-14T19:08:24.394Z,-2.30
2018-02-14T19:10:53.097Z,-2.30
2018-02-14T19:13:23.795Z,-2.10
2018-02-14T19:15:51.363Z,-2.20
2018-02-14T19:18:19.356Z,-2.20
2018-02-14T19:20:46.904Z,-2.30
2018-02-14T19:23:14.457Z,-2.30
2018-02-14T19:25:48.477Z,-2.30
2018-02-14T19:28:16.112Z,-2.30
2018-02-14T19:30:43.658Z,-2.40
2018-02-14T19:33:11.465Z,-2.40
2018-02-14T19:35:39.018Z,-2.40
2018-02-14T19:38:06.571Z,-2.40
2018-02-14T19:40:34.176Z,-2.60
2018-02-14T19:43:01.733Z,-2.60
2018-02-14T19:45:30.051Z,-2.70
2018-02-14T19:47:57.851Z,-2.70
2018-02-14T19:50:33.877Z,-2.70
2018-02-14T19:53:01.433Z,-2.80
2018-02-14T19:55:29.573Z,-2.70
2018-02-14T19:57:58.421Z,-2.60
2018-02-14T20:00:25.972Z,-2.70
2018-02-14T20:02:54.777Z,-2.70
2018-02-14T20:05:30.377Z,-2.70
2018-02-14T20:07:57.928Z,-2.70
2018-02-14T20:10:25.486Z,-2.70
2018-02-14T20:12:53.865Z,-2.70
2018-02-14T20:15:21.438Z,-2.70
2018-02-14T20:17:53.106Z,-2.70
2018-02-14T20:20:21.001Z,-2.70
2018-02-14T20:22:48.549Z,-2.70
2018-02-14T20:25:16.097Z,-2.70
2018-02-14T20:27:43.705Z,-2.70
2018-02-14T20:30:11.437Z,-2.60
2018-02-14T20:32:38.993Z,-2.60
2018-02-14T20:35:06.973Z,-2.50
2018-02-14T20:37:34.605Z,-2.60
2018-02-14T20:40:02.166Z,-2.50
2018-02-14T20:42:29.957Z,-2.50
2018-02-14T20:44:57.509Z,-2.50
2018-02-14T20:47:25.117Z,-2.50
2018-02-14T20:49:53.761Z,-2.40
2018-02-14T20:52:21.311Z,-2.40
2018-02-14T20:54:49.057Z,-2.50
2018-02-14T20:57:16.749Z,-2.50
2018-02-14T20:59:44.299Z,-2.30
2018-02-14T21:02:11.853Z,-2.30
2018-02-14T21:04:39.947Z,-2.40
2018-02-14T21:07:07.569Z,-2.30
2018-02-14T21:09:35.117Z,-2.20
2018-02-14T21:12:03.128Z,-2.20
2018-02-14T21:14:30.681Z,-2.30
2018-02-14T21:16:58.229Z,-2.30
2018-02-14T21:19:26.093Z,-2.40
2018-02-14T21:21:53.645Z,-2.40
2018-02-14T21:24:21.193Z,-2.30
2018-02-14T21:26:48.893Z,-2.30
2018-02-14T21:29:16.445Z,-2.20
2018-02-14T21:31:44.179Z,-2.30
2018-02-14T21:34:11.786Z,-2.30
2018-02-14T21:36:39.339Z,-2.40
2018-02-14T21:39:06.884Z,-2.40
2018-02-14T21:41:34.873Z,-2.40
2018-02-14T21:44:02.495Z,-2.40
2018-02-14T21:46:32.484Z,-2.40
2018-02-14T21:49:03.408Z,-2.40
2018-02-14T21:51:31.735Z,-2.40
2018-02-14T21:53:59.530Z,-2.40
2018-02-14T21:56:27.825Z,-2.50
2018-02-14T21:58:58.577Z,-2.50
2018-02-14T22:01:26.897Z,-2.50
2018-02-14T22:03:55.165Z,-2.50
2018-02-14T22:06:22.716Z,-2.40
2018-02-14T22:08:51.712Z,-2.40
2018-02-14T22:11:20.117Z,-2.40
2018-02-14T22:13:47.668Z,-2.40
2018-02-14T22:16:15.223Z,-2.50
2018-02-14T22:18:45.985Z,-2.40
2018-02-14T22:21:15.780Z,-2.30
2018-02-14T22:23:43.325Z,-2.20
2018-02-14T22:26:11.489Z,-2.10
2018-02-14T22:28:39.044Z,-2.10
2018-02-14T22:31:06.627Z,-2.00
2018-02-14T22:33:34.225Z,-2.10
2018-02-14T22:36:02.549Z,-2.30
2018-02-14T22:38:30.095Z,-2.30
2018-02-14T22:40:57.794Z,-2.30
2018-02-14T22:43:27.385Z,-2.20
2018-02-14T22:45:55.260Z,-2.30
2018-02-14T22:48:22.821Z,-2.40
2018-02-14T22:50:50.970Z,-2.40
2018-02-14T22:53:18.522Z,-2.50
2018-02-14T22:55:46.081Z,-2.50
2018-02-14T22:58:15.303Z,-2.40
2018-02-14T23:00:42.861Z,-2.40
2018-02-14T23:03:10.409Z,-2.30
2018-02-14T23:05:38.131Z,-2.30
2018-02-14T23:08:07.385Z,-2.00
2018-02-14T23:10:34.933Z,-2.00
2018-02-14T23:13:02.800Z,-2.00
2018-02-14T23:15:30.349Z,-2.00
2018-02-14T23:17:57.908Z,-2.10
2018-02-14T23:20:26.124Z,-2.00
2018-02-14T23:22:54.288Z,-2.00
2018-02-14T23:25:21.835Z,-1.90
2018-02-14T23:27:50.131Z,-2.00
2018-02-14T23:30:17.682Z,-1.90
2018-02-14T23:32:45.230Z,-1.90
2018-02-14T23:35:12.973Z,-1.80
2018-02-14T23:37:40.517Z,-1.70
2018-02-14T23:40:08.064Z,-1.70
2018-02-14T23:42:36.438Z,-1.60
2018-02-14T23:45:03.990Z,-1.60
2018-02-14T23:47:31.537Z,-1.70
2018-02-14T23:49:59.513Z,-1.60
2018-02-14T23:52:27.065Z,-1.70
2018-02-14T23:54:55.387Z,-1.60
2018-02-14T23:57:23.101Z,-1.60
2018-02-14T23:59:50.659Z,-1.60
